createdAt,value
2022-10-16T00:00:03.513Z,15.09
2022-10-16T00:05:03.549Z,15.03
2022-10-16T00:10:03.247Z,14.81
2022-10-16T00:15:02.971Z,14.74
2022-10-16T00:20:02.693Z,14.52
2022-10-16T00:25:03.512Z,14.36
2022-10-16T00:30:11.281Z,14.28
2022-10-16T00:35:03.030Z,14.29
2022-10-16T00:40:02.901Z,14.25
2022-10-16T00:45:03.263Z,14.35
2022-10-16T00:50:02.876Z,14.38
2022-10-16T00:55:03.851Z,14.58
2022-10-16T01:00:03.190Z,14.64
2022-10-16T01:05:02.803Z,14.71
2022-10-16T01:10:02.671Z,14.55
2022-10-16T01:15:03.287Z,14.54
2022-10-16T01:20:03.149Z,14.54
2022-10-16T01:25:02.705Z,14.52
2022-10-16T01:30:02.519Z,14.7
2022-10-16T01:35:03.244Z,14.95
2022-10-16T01:40:02.997Z,15.1
2022-10-16T01:45:02.890Z,15.25
2022-10-16T01:50:02.433Z,15.2
2022-10-16T01:55:04.109Z,15.23
2022-10-16T02:00:02.673Z,15.29
2022-10-16T02:05:03.273Z,15.37
2022-10-16T02:10:02.896Z,15.45
2022-10-16T02:15:02.753Z,15.36
2022-10-16T02:20:02.365Z,15.18
2022-10-16T02:25:02.979Z,15.07
2022-10-16T02:30:02.649Z,15.15
2022-10-16T02:35:03.245Z,15.12
2022-10-16T02:40:02.899Z,14.99
2022-10-16T02:45:02.696Z,14.7
2022-10-16T02:50:03.291Z,14.35
2022-10-16T02:55:04.135Z,14.12
2022-10-16T03:00:02.760Z,14.13
2022-10-16T03:05:02.382Z,14.02
2022-10-16T03:10:03.008Z,13.92
2022-10-16T03:15:02.672Z,13.54
2022-10-16T03:20:02.884Z,14.37
2022-10-16T03:25:02.400Z,14.56
2022-10-16T03:30:03.088Z,14.63
2022-10-16T03:35:02.678Z,14.65
2022-10-16T03:40:03.314Z,14.49
2022-10-16T03:45:03.182Z,14.38
2022-10-16T03:50:02.778Z,14.39
2022-10-16T03:55:03.463Z,14.31
2022-10-16T04:00:03.223Z,14.15
2022-10-16T04:05:02.820Z,14.19
2022-10-16T04:10:02.576Z,14.23
2022-10-16T04:15:03.230Z,14.12
2022-10-16T04:20:02.898Z,14.03
2022-10-16T04:25:02.569Z,13.98
2022-10-16T04:30:03.526Z,13.95
2022-10-16T04:35:03.052Z,14.21
2022-10-16T04:40:02.688Z,14.27
2022-10-16T04:45:03.397Z,14.28
2022-10-16T04:50:03.169Z,14.24
2022-10-16T04:55:03.769Z,13.98
2022-10-16T05:00:03.492Z,14.02
2022-10-16T05:05:02.662Z,13.82
2022-10-16T05:10:03.440Z,13.6
2022-10-16T05:15:03.165Z,13.49
2022-10-16T05:20:03.010Z,13.71
2022-10-16T05:25:02.661Z,13.63
2022-10-16T05:30:04.284Z,13.59
2022-10-16T05:35:03.067Z,13.61
2022-10-16T05:40:02.491Z,13.41
2022-10-16T05:45:03.181Z,13.44
2022-10-16T05:50:02.753Z,13.71
2022-10-16T05:55:04.046Z,13.97
2022-10-16T06:00:03.145Z,14.02
2022-10-16T06:05:02.756Z,14.01
2022-10-16T06:10:02.404Z,13.97
2022-10-16T06:15:03.183Z,13.95
2022-10-16T06:20:02.777Z,14.07
2022-10-16T06:25:02.584Z,14.38
2022-10-16T06:30:03.279Z,14.63
2022-10-16T06:35:03.150Z,15.29
2022-10-16T06:40:02.786Z,15.61
2022-10-16T06:45:03.376Z,15.72
2022-10-16T06:50:03.027Z,15.9
2022-10-16T06:55:04.050Z,15.98
2022-10-16T07:00:03.640Z,15.97
2022-10-16T07:05:02.950Z,16.09
2022-10-16T07:10:02.608Z,16.28
2022-10-16T07:15:03.656Z,16.43
2022-10-16T07:20:03.155Z,16.69
2022-10-16T07:25:02.877Z,16.76
2022-10-16T07:30:09.594Z,16.74
2022-10-16T07:35:03.259Z,16.58
2022-10-16T07:40:02.890Z,16.52
2022-10-16T07:45:03.531Z,16.56
2022-10-16T07:50:03.127Z,16.57
2022-10-16T07:55:04.001Z,16.68
2022-10-16T08:00:03.474Z,16.78
2022-10-16T08:05:03.072Z,16.73
2022-10-16T08:10:02.752Z,16.73
2022-10-16T08:15:03.440Z,17.06
2022-10-16T08:20:03.103Z,17.27
2022-10-16T08:25:02.720Z,17.28
2022-10-16T08:30:03.193Z,17.47
2022-10-16T08:35:03.169Z,17.49
2022-10-16T08:40:02.777Z,17.73
2022-10-16T08:45:03.447Z,18.53
2022-10-16T08:50:03.050Z,18.57
2022-10-16T08:55:03.880Z,18.32
2022-10-16T09:00:03.385Z,18.31
2022-10-16T09:05:03.018Z,18.24
2022-10-16T09:10:03.512Z,18.35
2022-10-16T09:15:03.175Z,19.14
2022-10-16T09:20:02.818Z,19.81
2022-10-16T09:25:03.449Z,19.25
2022-10-16T09:30:03.119Z,18.96
2022-10-16T09:35:02.701Z,18.78
2022-10-16T09:40:08.219Z,18.85
2022-10-16T09:45:03.094Z,19.22
2022-10-16T09:50:02.666Z,20.74
2022-10-16T09:55:04.695Z,20.33
2022-10-16T10:00:03.132Z,19.82
2022-10-16T10:05:02.733Z,19.66
2022-10-16T10:10:03.343Z,19.64
2022-10-16T10:15:03.021Z,20.11
2022-10-16T10:20:02.646Z,20.62
2022-10-16T10:25:03.333Z,20.86
2022-10-16T10:30:03.228Z,21.3
2022-10-16T10:35:03.549Z,21.44
2022-10-16T10:40:03.297Z,21.65
2022-10-16T10:45:02.913Z,20.28
2022-10-16T10:50:03.519Z,20
2022-10-16T10:55:04.220Z,20.18
2022-10-16T11:00:02.806Z,20.42
2022-10-16T11:05:03.606Z,20.33
2022-10-16T11:10:03.357Z,19.92
2022-10-16T11:15:02.988Z,20
2022-10-16T11:20:02.651Z,20.04
2022-10-16T11:25:03.450Z,20.01
2022-10-16T11:30:03.108Z,19.9
2022-10-16T11:35:02.727Z,19.8
2022-10-16T11:40:03.371Z,19.79
2022-10-16T11:45:03.022Z,19.63
2022-10-16T11:50:03.613Z,21.88
2022-10-16T11:55:04.523Z,20.83
2022-10-16T12:00:02.938Z,20.05
2022-10-16T12:05:02.559Z,20.73
2022-10-16T12:10:03.211Z,21.52
2022-10-16T12:15:35.084Z,20.76
2022-10-16T12:20:03.127Z,21.91
2022-10-16T12:25:02.833Z,21.86
2022-10-16T12:30:02.452Z,21.75
2022-10-16T12:35:03.029Z,21.84
2022-10-16T12:40:02.776Z,22.24
2022-10-16T12:45:03.382Z,22.15
2022-10-16T12:50:12.972Z,21.74
2022-10-16T12:55:04.230Z,21.38
2022-10-16T13:00:02.895Z,20.76
2022-10-16T13:05:02.763Z,21.09
2022-10-16T13:10:03.445Z,22.43
2022-10-16T13:15:03.028Z,22.78
2022-10-16T13:20:02.675Z,21.95
2022-10-16T13:25:03.382Z,21.59
2022-10-16T13:30:03.188Z,22.15
2022-10-16T13:35:02.862Z,22.19
2022-10-16T13:40:03.501Z,21.83
2022-10-16T13:45:03.392Z,22.18
2022-10-16T13:50:02.941Z,22.78
2022-10-16T13:55:04.417Z,22.46
2022-10-16T14:00:03.254Z,22.52
2022-10-16T14:05:03.277Z,21.67
2022-10-16T14:10:02.892Z,22.51
2022-10-16T14:15:03.577Z,22.09
2022-10-16T14:20:07.024Z,20.05
2022-10-16T14:25:02.811Z,19.83
2022-10-16T14:30:03.479Z,19.76
2022-10-16T14:35:03.097Z,19.97
2022-10-16T14:40:02.814Z,20.22
2022-10-16T14:45:03.405Z,21.18
2022-10-16T14:50:03.306Z,20.81
2022-10-16T14:55:03.813Z,20.72
2022-10-16T15:00:03.701Z,20.87
2022-10-16T15:05:03.258Z,20.27
2022-10-16T15:10:03.039Z,19.76
2022-10-16T15:15:03.454Z,19.78
2022-10-16T15:20:03.312Z,20.73
2022-10-16T15:25:02.926Z,21.26
2022-10-16T15:30:03.690Z,21.44
2022-10-16T15:35:03.161Z,21.02
2022-10-16T15:40:02.825Z,20.61
2022-10-16T15:45:03.494Z,20
2022-10-16T15:50:03.135Z,19.7
2022-10-16T15:55:03.634Z,19.45
2022-10-16T16:00:11.354Z,19.16
2022-10-16T16:05:03.120Z,18.89
2022-10-16T16:10:02.708Z,18.51
2022-10-16T16:15:04.853Z,18.01
2022-10-16T16:20:03.013Z,17.6
2022-10-16T16:25:02.792Z,17.52
2022-10-16T16:30:03.548Z,16.89
2022-10-16T16:35:02.801Z,16.51
2022-10-16T16:40:03.554Z,16.11
2022-10-16T16:45:03.368Z,15.72
2022-10-16T16:50:02.548Z,15.51
2022-10-16T16:55:04.353Z,15.29
2022-10-16T17:00:03.126Z,15.29
2022-10-16T17:05:03.062Z,14.95
2022-10-16T17:10:02.713Z,14.79
2022-10-16T17:15:03.416Z,14.89
2022-10-16T17:20:03.055Z,14.62
2022-10-16T17:25:03.541Z,14.48
2022-10-16T17:30:03.345Z,14.8
2022-10-16T17:35:02.969Z,15.23
2022-10-16T17:40:03.907Z,15.31
2022-10-16T17:45:03.256Z,15.18
2022-10-16T17:50:02.812Z,15.05
2022-10-16T17:55:04.377Z,14.52
2022-10-16T18:00:03.107Z,13.87
2022-10-16T18:05:02.857Z,13.71
2022-10-16T18:10:14.107Z,13.99
2022-10-16T18:15:03.503Z,14.36
2022-10-16T18:20:03.370Z,15.01
2022-10-16T18:25:02.954Z,15.1
2022-10-16T18:30:03.612Z,14.7
2022-10-16T18:35:03.781Z,14.62
2022-10-16T18:40:03.023Z,14.95
2022-10-16T18:45:02.691Z,14.7
2022-10-16T18:50:09.516Z,14.56
2022-10-16T18:55:03.581Z,14.65
2022-10-16T19:00:03.381Z,14.48
2022-10-16T19:05:09.766Z,14.23
2022-10-16T19:10:03.464Z,13.97
2022-10-16T19:15:03.434Z,13.72
2022-10-16T19:20:03.216Z,14.05
2022-10-16T19:25:03.032Z,14.28
2022-10-16T19:30:02.585Z,13.82
2022-10-16T19:35:03.503Z,13.52
2022-10-16T19:40:03.198Z,13.7
2022-10-16T19:45:02.855Z,13.7
2022-10-16T19:50:03.481Z,13.1
2022-10-16T19:55:03.893Z,13.42
2022-10-16T20:00:02.932Z,13.66
2022-10-16T20:05:03.475Z,13.83
2022-10-16T20:10:03.141Z,13.74
2022-10-16T20:15:02.683Z,14.06
2022-10-16T20:20:03.573Z,14.07
2022-10-16T20:25:11.283Z,13.81
2022-10-16T20:30:03.213Z,13.64
2022-10-16T20:35:08.511Z,13.34
2022-10-16T20:40:03.226Z,13.3
2022-10-16T20:45:02.858Z,13.87
2022-10-16T20:50:03.434Z,14
2022-10-16T20:55:04.185Z,14.03
2022-10-16T21:00:02.908Z,13.96
2022-10-16T21:05:03.516Z,13.79
2022-10-16T21:10:03.278Z,13.48
2022-10-16T21:15:16.210Z,13.68
2022-10-16T21:20:02.923Z,13.69
2022-10-16T21:25:03.578Z,13.62
2022-10-16T21:30:03.280Z,13.55
2022-10-16T21:35:03.064Z,13.79
2022-10-16T21:40:02.698Z,13.87
2022-10-16T21:45:03.098Z,13.82
2022-10-16T21:50:02.819Z,13.87
2022-10-16T21:55:03.910Z,13.91
2022-10-16T22:00:09.434Z,13.62
2022-10-16T22:05:03.135Z,13.55
2022-10-16T22:10:02.464Z,13.84
2022-10-16T22:15:03.217Z,13.86
2022-10-16T22:20:02.925Z,13.79
2022-10-16T22:25:02.542Z,13.73
2022-10-16T22:30:03.224Z,13.7
2022-10-16T22:35:02.955Z,13.91
2022-10-16T22:40:02.623Z,14.08
2022-10-16T22:45:03.294Z,14.23
2022-10-16T22:50:02.885Z,14.3
2022-10-16T22:55:04.085Z,14.46
2022-10-16T23:00:03.365Z,14.38
2022-10-16T23:05:02.975Z,14.17
2022-10-16T23:15:03.303Z,14.18
2022-10-16T23:20:02.960Z,14.11
2022-10-16T23:25:02.620Z,13.99
2022-10-16T23:30:03.291Z,14.06
2022-10-16T23:35:02.896Z,14.02
2022-10-16T23:40:02.666Z,13.82
2022-10-16T23:45:03.316Z,13.59
2022-10-16T23:50:02.904Z,13.65
2022-10-16T23:55:03.840Z,13.65
